createdAt,value
2019-03-24T00:01:21.170Z,52.27
2019-03-24T00:03:54.035Z,54.07
2019-03-24T00:06:26.978Z,43.87
2019-03-24T00:08:59.387Z,51.37
2019-03-24T00:11:31.138Z,47.87
2019-03-24T00:14:02.847Z,54.20
2019-03-24T00:16:35.476Z,54.97
2019-03-24T00:19:07.178Z,46.93
2019-03-24T00:21:38.795Z,49.60
2019-03-24T00:24:10.568Z,50.63
2019-03-24T00:26:42.215Z,53.10
2019-03-24T00:29:13.836Z,49.93
2019-03-24T00:31:45.662Z,49.43
2019-03-24T00:34:17.323Z,57.30
2019-03-24T00:36:52.090Z,52.87
2019-03-24T00:39:23.648Z,57.10
2019-03-24T00:41:55.262Z,53.33
2019-03-24T00:44:28.267Z,51.73
2019-03-24T00:46:59.917Z,51.90
2019-03-24T00:49:31.549Z,53.53
2019-03-24T00:52:03.123Z,54.50
2019-03-24T00:54:35.324Z,54.50
2019-03-24T00:57:08.063Z,52.57
2019-03-24T00:59:40.690Z,50.40
2019-03-24T01:02:12.318Z,50.33
2019-03-24T01:04:44.051Z,54.37
2019-03-24T01:07:15.726Z,47.70
2019-03-24T01:09:47.295Z,54.80
2019-03-24T01:12:19.835Z,58.33
2019-03-24T01:14:51.406Z,57.93
2019-03-24T01:17:22.995Z,56.57
2019-03-24T01:19:54.550Z,54.10
2019-03-24T01:22:26.179Z,53.37
2019-03-24T01:24:57.788Z,56.90
2019-03-24T01:27:29.418Z,50.57
2019-03-24T01:30:02.310Z,55.43
2019-03-24T01:32:33.882Z,55.00
2019-03-24T01:35:07.451Z,52.00
2019-03-24T01:37:40.066Z,57.13
2019-03-24T01:40:11.796Z,50.63
2019-03-24T01:42:43.414Z,56.00
2019-03-24T01:45:15.146Z,59.33
2019-03-24T01:47:46.706Z,61.30
2019-03-24T01:50:18.346Z,57.03
2019-03-24T01:52:50.075Z,60.77
2019-03-24T01:55:21.698Z,56.47
2019-03-24T01:57:53.331Z,54.80
2019-03-24T02:00:25.107Z,55.20
2019-03-24T02:02:56.692Z,52.00
2019-03-24T02:05:28.315Z,58.23
2019-03-24T02:08:00.133Z,62.67
2019-03-24T02:10:31.771Z,63.63
2019-03-24T02:13:03.327Z,59.97
2019-03-24T02:15:35.138Z,58.00
2019-03-24T02:18:06.779Z,55.33
2019-03-24T02:20:38.319Z,53.50
2019-03-24T02:23:10.027Z,61.23
2019-03-24T02:25:41.567Z,65.90
2019-03-24T02:28:13.139Z,56.70
2019-03-24T02:30:44.764Z,65.63
2019-03-24T02:33:16.429Z,57.20
2019-03-24T02:35:48.221Z,59.73
2019-03-24T02:38:19.852Z,59.07
2019-03-24T02:40:51.458Z,66.87
2019-03-24T02:43:23.026Z,54.80
2019-03-24T02:45:54.587Z,60.83
2019-03-24T02:48:26.176Z,58.60
2019-03-24T02:50:57.774Z,50.07
2019-03-24T02:53:29.403Z,69.70
2019-03-24T02:56:01.048Z,63.93
2019-03-24T02:58:33.857Z,59.60
2019-03-24T03:01:05.598Z,57.17
2019-03-24T03:03:37.247Z,61.77
2019-03-24T03:06:09.879Z,58.20
2019-03-24T03:08:41.533Z,59.90
2019-03-24T03:11:13.157Z,57.73
2019-03-24T03:13:44.837Z,66.00
2019-03-24T03:16:16.457Z,59.00
2019-03-24T03:18:48.365Z,61.07
2019-03-24T03:21:20.100Z,57.70
2019-03-24T03:23:51.744Z,64.93
2019-03-24T03:26:23.314Z,58.80
2019-03-24T03:28:54.898Z,62.70
2019-03-24T03:31:26.549Z,53.93
2019-03-24T03:33:58.173Z,64.93
2019-03-24T03:36:30.873Z,59.70
2019-03-24T03:39:02.491Z,61.70
2019-03-24T03:41:35.327Z,63.20
2019-03-24T03:44:06.958Z,64.77
2019-03-24T03:46:51.510Z,59.80
2019-03-24T03:49:12.119Z,63.23
2019-03-24T03:51:43.690Z,60.77
2019-03-24T03:54:16.400Z,62.53
2019-03-24T03:56:48.035Z,59.67
2019-03-24T03:59:19.704Z,66.37
2019-03-24T04:01:51.313Z,63.93
2019-03-24T04:04:22.958Z,74.53
2019-03-24T04:06:54.650Z,68.53
2019-03-24T04:09:26.280Z,66.13
2019-03-24T04:11:57.973Z,77.83
2019-03-24T04:14:29.600Z,73.10
2019-03-24T04:17:07.520Z,62.13
2019-03-24T04:19:34.430Z,75.10
2019-03-24T04:22:06.051Z,76.30
2019-03-24T04:24:37.603Z,70.83
2019-03-24T04:27:09.208Z,67.53
2019-03-24T04:29:40.752Z,71.60
2019-03-24T04:32:12.332Z,62.33
2019-03-24T04:34:43.875Z,72.43
2019-03-24T04:37:15.632Z,62.73
2019-03-24T04:39:47.286Z,64.37
2019-03-24T04:42:18.911Z,65.93
2019-03-24T04:44:50.487Z,69.93
2019-03-24T04:47:22.044Z,67.27
2019-03-24T04:49:53.722Z,63.20
2019-03-24T04:52:25.284Z,67.00
2019-03-24T04:54:56.840Z,68.63
2019-03-24T04:57:28.481Z,62.23
2019-03-24T05:00:00.240Z,65.50
2019-03-24T05:02:32.295Z,61.10
2019-03-24T05:05:03.860Z,59.90
2019-03-24T05:07:36.072Z,71.73
2019-03-24T05:10:10.991Z,60.47
2019-03-24T05:12:42.585Z,62.03
2019-03-24T05:15:14.249Z,57.77
2019-03-24T05:17:45.869Z,67.77
2019-03-24T05:20:17.497Z,60.70
2019-03-24T05:22:49.200Z,62.97
2019-03-24T05:25:20.799Z,65.13
2019-03-24T05:27:52.427Z,65.60
2019-03-24T05:30:24.090Z,57.67
2019-03-24T05:32:55.631Z,59.17
2019-03-24T05:35:27.202Z,61.47
2019-03-24T05:37:58.828Z,58.87
2019-03-24T05:40:30.499Z,59.10
2019-03-24T05:43:02.050Z,63.47
2019-03-24T05:45:33.599Z,59.70
2019-03-24T05:48:05.251Z,59.90
2019-03-24T05:50:36.810Z,57.23
2019-03-24T05:53:08.999Z,58.70
2019-03-24T05:55:40.749Z,60.37
2019-03-24T05:58:12.311Z,58.63
2019-03-24T06:00:43.858Z,66.60
2019-03-24T06:03:15.442Z,59.40
2019-03-24T06:05:47.060Z,65.00
2019-03-24T06:08:18.694Z,70.20
2019-03-24T06:10:50.338Z,66.80
2019-03-24T06:13:21.966Z,61.63
2019-03-24T06:15:53.594Z,66.00
2019-03-24T06:18:26.350Z,64.23
2019-03-24T06:20:58.000Z,57.30
2019-03-24T06:23:29.615Z,64.87
2019-03-24T06:26:01.175Z,61.03
2019-03-24T06:28:32.738Z,58.07
2019-03-24T06:31:04.305Z,62.67
2019-03-24T06:33:35.930Z,50.20
2019-03-24T06:36:07.554Z,51.90
2019-03-24T06:38:39.136Z,54.67
2019-03-24T06:41:10.807Z,51.73
2019-03-24T06:43:42.471Z,51.80
2019-03-24T06:46:15.058Z,46.13
2019-03-24T06:48:46.923Z,46.50
2019-03-24T06:51:18.540Z,50.40
2019-03-24T06:53:50.106Z,45.70
2019-03-24T06:56:21.685Z,42.10
2019-03-24T06:58:53.325Z,45.07
2019-03-24T07:01:24.938Z,52.60
2019-03-24T07:03:56.504Z,47.90
2019-03-24T07:06:28.143Z,42.93
2019-03-24T07:08:59.795Z,38.27
2019-03-24T07:11:31.358Z,40.17
2019-03-24T07:14:03.021Z,38.70
2019-03-24T07:16:34.583Z,38.00
2019-03-24T07:19:06.190Z,36.07
2019-03-24T07:21:37.811Z,38.50
2019-03-24T07:24:09.344Z,37.23
2019-03-24T07:26:40.932Z,37.80
2019-03-24T07:29:12.651Z,34.80
2019-03-24T07:31:44.248Z,33.33
2019-03-24T07:34:15.904Z,30.23
2019-03-24T07:36:49.994Z,32.43
2019-03-24T07:39:21.642Z,31.87
2019-03-24T07:41:53.200Z,31.90
2019-03-24T07:44:24.958Z,32.47
2019-03-24T07:46:56.648Z,28.07
2019-03-24T07:49:28.239Z,27.40
2019-03-24T07:51:59.907Z,33.40
2019-03-24T07:54:31.539Z,34.27
2019-03-24T07:57:03.340Z,27.83
2019-03-24T07:59:35.057Z,26.47
2019-03-24T08:02:06.807Z,29.00
2019-03-24T08:04:41.507Z,26.07
2019-03-24T08:07:13.076Z,27.97
2019-03-24T08:09:45.122Z,27.07
2019-03-24T08:12:17.791Z,29.83
2019-03-24T08:14:49.679Z,26.30
2019-03-24T08:17:21.341Z,28.90
2019-03-24T08:19:52.987Z,32.40
2019-03-24T08:22:24.568Z,26.53
2019-03-24T08:24:56.775Z,29.40
2019-03-24T08:27:29.527Z,27.67
2019-03-24T08:30:01.526Z,28.00
2019-03-24T08:32:36.299Z,27.90
2019-03-24T08:35:09.411Z,30.80
2019-03-24T08:37:41.131Z,28.23
2019-03-24T08:40:12.991Z,28.17
2019-03-24T08:42:45.754Z,24.27
2019-03-24T08:45:26.787Z,25.63
2019-03-24T08:47:58.679Z,27.07
2019-03-24T08:50:31.280Z,24.40
2019-03-24T08:53:02.982Z,28.97
2019-03-24T08:55:36.100Z,24.47
2019-03-24T08:58:07.758Z,29.60
2019-03-24T09:00:39.443Z,27.40
2019-03-24T09:03:12.195Z,30.87
2019-03-24T09:05:43.881Z,25.80
2019-03-24T09:08:15.512Z,26.10
2019-03-24T09:10:47.252Z,25.80
2019-03-24T09:13:18.836Z,30.30
2019-03-24T09:15:50.460Z,25.07
2019-03-24T09:18:22.105Z,26.90
2019-03-24T09:20:56.398Z,30.97
2019-03-24T09:23:28.035Z,25.53
2019-03-24T09:25:59.674Z,27.10
2019-03-24T09:28:31.311Z,28.63
2019-03-24T09:31:04.299Z,24.50
2019-03-24T09:33:35.964Z,24.77
2019-03-24T09:36:07.719Z,32.87
2019-03-24T09:38:39.268Z,28.60
2019-03-24T09:41:10.843Z,28.03
2019-03-24T09:43:42.545Z,24.60
2019-03-24T09:46:14.231Z,27.90
2019-03-24T09:48:46.025Z,28.77
2019-03-24T09:51:17.820Z,34.37
2019-03-24T09:53:49.458Z,34.33
2019-03-24T09:56:21.110Z,31.50
2019-03-24T09:58:52.830Z,33.90
2019-03-24T10:01:24.476Z,37.03
2019-03-24T10:03:56.113Z,41.47
2019-03-24T10:06:27.703Z,40.17
2019-03-24T10:08:59.327Z,44.93
2019-03-24T10:11:31.978Z,37.17
2019-03-24T10:14:03.711Z,40.27
2019-03-24T10:16:35.335Z,36.43
2019-03-24T10:19:13.829Z,38.73
2019-03-24T10:21:42.844Z,36.90
2019-03-24T10:24:15.917Z,39.63
2019-03-24T10:26:47.574Z,38.17
2019-03-24T10:29:19.302Z,37.13
2019-03-24T10:31:50.843Z,41.20
2019-03-24T10:34:23.608Z,37.57
2019-03-24T10:36:56.436Z,35.50
2019-03-24T10:39:28.146Z,39.13
2019-03-24T10:41:59.752Z,49.77
2019-03-24T10:44:31.320Z,37.40
2019-03-24T10:47:02.994Z,39.87
2019-03-24T10:49:34.727Z,40.13
2019-03-24T10:52:06.580Z,38.20
2019-03-24T10:54:38.196Z,37.57
2019-03-24T10:57:11.167Z,35.30
2019-03-24T10:59:42.838Z,37.93
2019-03-24T11:02:14.551Z,37.07
2019-03-24T11:04:48.208Z,40.47
2019-03-24T11:07:20.031Z,45.77
2019-03-24T11:09:51.748Z,32.70
2019-03-24T11:12:24.727Z,35.67
2019-03-24T11:14:56.327Z,34.27
2019-03-24T11:17:27.893Z,38.50
2019-03-24T11:19:59.549Z,40.43
2019-03-24T11:22:31.175Z,34.60
2019-03-24T11:25:03.239Z,38.80
2019-03-24T11:27:35.260Z,35.03
2019-03-24T11:30:09.815Z,36.03
2019-03-24T11:32:42.348Z,34.13
2019-03-24T11:35:14.538Z,31.93
2019-03-24T11:37:47.169Z,37.80
2019-03-24T11:40:21.567Z,34.07
2019-03-24T11:42:55.242Z,36.43
2019-03-24T11:45:26.914Z,33.93
2019-03-24T11:47:58.559Z,40.20
2019-03-24T11:50:30.394Z,32.77
2019-03-24T11:53:01.993Z,32.37
2019-03-24T11:55:33.900Z,34.63
2019-03-24T11:58:06.504Z,38.13
2019-03-24T12:00:40.226Z,34.17
2019-03-24T12:03:11.950Z,33.43
2019-03-24T12:05:44.725Z,35.00
2019-03-24T12:08:16.594Z,31.27
2019-03-24T12:10:48.219Z,29.80
2019-03-24T12:13:19.806Z,30.40
2019-03-24T12:15:51.358Z,30.23
2019-03-24T12:18:23.140Z,37.97
2019-03-24T12:20:54.810Z,36.17
2019-03-24T12:23:26.490Z,30.77
2019-03-24T12:25:58.160Z,30.40
2019-03-24T12:28:31.435Z,31.90
2019-03-24T12:31:03.292Z,29.63
2019-03-24T12:33:37.018Z,33.27
2019-03-24T12:36:10.482Z,32.10
2019-03-24T12:38:42.149Z,27.87
2019-03-24T12:41:13.772Z,26.27
2019-03-24T12:43:45.460Z,28.83
2019-03-24T12:46:17.208Z,30.00
2019-03-24T12:48:48.985Z,40.50
2019-03-24T12:51:21.871Z,31.47
2019-03-24T12:53:53.521Z,28.80
2019-03-24T12:56:25.312Z,29.50
2019-03-24T12:58:57.086Z,32.73
2019-03-24T13:01:28.764Z,32.63
2019-03-24T13:04:00.362Z,25.30
2019-03-24T13:06:32.131Z,30.03
2019-03-24T13:09:05.147Z,29.33
2019-03-24T13:11:36.866Z,30.93
2019-03-24T13:14:08.644Z,28.30
2019-03-24T13:16:40.298Z,26.43
2019-03-24T13:19:12.005Z,25.37
2019-03-24T13:21:43.651Z,27.50
2019-03-24T13:24:15.375Z,28.43
2019-03-24T13:26:46.955Z,25.67
2019-03-24T13:29:18.582Z,28.90
2019-03-24T13:31:50.265Z,29.13
2019-03-24T13:34:21.997Z,26.40
2019-03-24T13:36:53.732Z,34.13
2019-03-24T13:39:25.577Z,22.43
2019-03-24T13:41:57.269Z,24.70
2019-03-24T13:44:28.899Z,23.20
2019-03-24T13:47:00.504Z,26.17
2019-03-24T13:49:32.175Z,27.27
2019-03-24T13:52:03.924Z,22.40
2019-03-24T13:54:35.558Z,24.83
2019-03-24T13:57:07.516Z,27.00
2019-03-24T13:59:39.249Z,25.73
2019-03-24T14:02:12.431Z,22.47
2019-03-24T14:04:44.102Z,27.30
2019-03-24T14:07:16.190Z,24.40
2019-03-24T14:09:47.981Z,29.43
2019-03-24T14:12:20.191Z,27.83
2019-03-24T14:14:51.978Z,21.50
2019-03-24T14:17:23.637Z,23.20
2019-03-24T14:19:55.337Z,21.60
2019-03-24T14:22:26.964Z,25.40
2019-03-24T14:24:58.588Z,23.13
2019-03-24T14:27:30.213Z,24.80
2019-03-24T14:30:02.082Z,25.40
2019-03-24T14:32:34.852Z,23.90
2019-03-24T14:35:07.822Z,28.43
2019-03-24T14:37:49.144Z,25.40
2019-03-24T14:40:23.551Z,27.07
2019-03-24T14:43:00.877Z,24.57
2019-03-24T14:45:35.816Z,21.80
2019-03-24T14:48:09.523Z,21.50
2019-03-24T14:50:41.262Z,23.20
2019-03-24T14:53:13.319Z,23.77
2019-03-24T14:55:48.822Z,23.23
2019-03-24T14:58:20.595Z,35.80
2019-03-24T15:00:52.755Z,24.40
2019-03-24T15:03:24.622Z,21.53
2019-03-24T15:05:57.940Z,30.40
2019-03-24T15:08:33.687Z,24.93
2019-03-24T15:11:05.832Z,20.73
2019-03-24T15:13:37.567Z,24.60
2019-03-24T15:16:09.268Z,25.73
2019-03-24T15:18:40.856Z,22.00
2019-03-24T15:21:12.427Z,21.13
2019-03-24T15:23:44.087Z,19.80
2019-03-24T15:26:16.829Z,24.17
2019-03-24T15:28:48.555Z,20.03
2019-03-24T15:31:20.379Z,24.40
2019-03-24T15:33:51.955Z,20.30
2019-03-24T15:36:23.630Z,23.67
2019-03-24T15:38:55.569Z,22.80
2019-03-24T15:41:27.671Z,21.60
2019-03-24T15:43:59.920Z,22.90
2019-03-24T15:46:32.141Z,25.50
2019-03-24T15:49:04.240Z,22.97
2019-03-24T15:51:36.575Z,27.33
2019-03-24T15:54:08.711Z,22.33
2019-03-24T15:56:42.879Z,21.37
2019-03-24T15:59:14.921Z,25.93
2019-03-24T16:01:46.827Z,27.33
2019-03-24T16:04:19.665Z,28.77
2019-03-24T16:06:53.613Z,23.20
2019-03-24T16:09:29.069Z,22.57
2019-03-24T16:12:04.111Z,23.77
2019-03-24T16:14:36.704Z,22.97
2019-03-24T16:17:11.353Z,22.47
2019-03-24T16:19:46.203Z,26.20
2019-03-24T16:22:20.953Z,21.83
2019-03-24T16:24:54.251Z,21.23
2019-03-24T16:27:26.622Z,24.40
2019-03-24T16:29:58.781Z,21.90
2019-03-24T16:32:32.911Z,24.27
2019-03-24T16:35:08.175Z,24.50
2019-03-24T16:37:42.220Z,20.27
2019-03-24T16:40:14.749Z,22.17
2019-03-24T16:42:46.861Z,26.70
2019-03-24T16:45:19.869Z,21.17
2019-03-24T16:47:54.122Z,22.83
2019-03-24T16:50:25.915Z,23.00
2019-03-24T16:53:02.688Z,23.50
2019-03-24T16:55:35.296Z,18.87
2019-03-24T16:58:09.200Z,21.80
2019-03-24T17:00:40.888Z,24.20
2019-03-24T17:03:12.700Z,24.83
2019-03-24T17:05:44.642Z,26.53
2019-03-24T17:08:16.395Z,24.70
2019-03-24T17:10:48.085Z,24.60
2019-03-24T17:13:19.867Z,24.97
2019-03-24T17:15:51.639Z,26.10
2019-03-24T17:18:23.387Z,27.93
2019-03-24T17:20:55.096Z,26.00
2019-03-24T17:23:26.852Z,26.07
2019-03-24T17:26:02.128Z,27.70
2019-03-24T17:28:33.982Z,25.23
2019-03-24T17:31:06.552Z,29.33
2019-03-24T17:33:40.584Z,28.20
2019-03-24T17:36:12.511Z,31.93
2019-03-24T17:38:46.599Z,33.43
2019-03-24T17:41:21.492Z,22.93
2019-03-24T17:44:03.211Z,25.90
2019-03-24T17:46:30.649Z,30.03
2019-03-24T17:49:04.798Z,25.03
2019-03-24T17:51:37.594Z,25.47
2019-03-24T17:54:14.926Z,24.47
2019-03-24T17:56:50.001Z,29.20
2019-03-24T17:59:23.703Z,30.40
2019-03-24T18:01:56.192Z,31.83
2019-03-24T18:04:30.438Z,31.97
2019-03-24T18:07:04.615Z,30.33
2019-03-24T18:09:36.048Z,30.93
2019-03-24T18:12:13.253Z,33.80
2019-03-24T18:14:46.301Z,27.40
2019-03-24T18:17:18.705Z,25.73
2019-03-24T18:19:51.764Z,24.80
2019-03-24T18:22:24.933Z,27.60
2019-03-24T18:24:56.593Z,25.53
2019-03-24T18:27:29.302Z,22.43
2019-03-24T18:30:00.897Z,27.47
2019-03-24T18:32:33.611Z,25.90
2019-03-24T18:35:07.896Z,36.03
2019-03-24T18:37:39.892Z,24.47
2019-03-24T18:40:13.011Z,31.13
2019-03-24T18:42:44.986Z,26.97
2019-03-24T18:45:19.902Z,26.20
2019-03-24T18:47:55.029Z,27.87
2019-03-24T18:50:29.269Z,32.37
2019-03-24T18:53:01.190Z,28.40
2019-03-24T18:55:34.660Z,29.80
2019-03-24T18:58:11.182Z,26.43
2019-03-24T19:00:46.195Z,25.53
2019-03-24T19:03:21.425Z,22.53
2019-03-24T19:05:55.766Z,26.90
2019-03-24T19:08:27.667Z,26.67
2019-03-24T19:10:59.382Z,21.73
2019-03-24T19:13:31.230Z,25.90
2019-03-24T19:16:03.204Z,29.83
2019-03-24T19:18:35.077Z,35.13
2019-03-24T19:21:06.794Z,32.60
2019-03-24T19:23:38.492Z,36.73
2019-03-24T19:26:10.280Z,32.60
2019-03-24T19:28:42.134Z,37.23
2019-03-24T19:31:13.788Z,38.70
2019-03-24T19:33:45.671Z,34.13
2019-03-24T19:36:17.490Z,33.37
2019-03-24T19:38:49.571Z,30.70
2019-03-24T19:41:21.204Z,32.13
2019-03-24T19:43:53.456Z,34.80
2019-03-24T19:46:25.189Z,44.17
2019-03-24T19:48:56.871Z,34.00
2019-03-24T19:51:28.547Z,39.00
2019-03-24T19:54:00.195Z,38.57
2019-03-24T19:56:31.785Z,34.27
2019-03-24T19:59:04.553Z,32.83
2019-03-24T20:01:36.302Z,39.80
2019-03-24T20:04:08.007Z,37.40
2019-03-24T20:06:39.686Z,31.30
2019-03-24T20:09:11.375Z,30.87
2019-03-24T20:11:43.183Z,38.47
2019-03-24T20:14:15.094Z,45.63
2019-03-24T20:16:46.859Z,37.53
2019-03-24T20:19:18.464Z,36.53
2019-03-24T20:21:50.141Z,43.67
2019-03-24T20:24:21.870Z,40.60
2019-03-24T20:26:53.600Z,42.53
2019-03-24T20:29:25.239Z,43.00
2019-03-24T20:31:58.036Z,37.77
2019-03-24T20:34:29.718Z,44.50
2019-03-24T20:37:01.434Z,37.60
2019-03-24T20:39:34.052Z,48.93
2019-03-24T20:42:05.929Z,40.23
2019-03-24T20:44:37.596Z,42.83
2019-03-24T20:47:09.343Z,39.77
2019-03-24T20:49:41.020Z,35.27
2019-03-24T20:52:12.676Z,42.77
2019-03-24T20:54:44.326Z,38.30
2019-03-24T20:57:15.921Z,43.23
2019-03-24T20:59:47.644Z,40.17
2019-03-24T21:02:19.324Z,48.30
2019-03-24T21:04:50.989Z,44.87
2019-03-24T21:07:22.623Z,41.90
2019-03-24T21:09:54.203Z,46.90
2019-03-24T21:12:25.840Z,56.23
2019-03-24T21:14:57.509Z,52.70
2019-03-24T21:17:29.153Z,46.53
2019-03-24T21:20:00.834Z,50.40
2019-03-24T21:22:32.556Z,53.57
2019-03-24T21:25:05.104Z,46.37
2019-03-24T21:27:36.820Z,53.37
2019-03-24T21:30:09.469Z,49.77
2019-03-24T21:32:41.118Z,49.67
2019-03-24T21:35:13.132Z,52.17
2019-03-24T21:37:44.847Z,55.60
2019-03-24T21:40:17.265Z,44.27
2019-03-24T21:42:48.882Z,50.43
2019-03-24T21:45:20.512Z,60.13
2019-03-24T21:47:52.235Z,53.90
2019-03-24T21:50:23.865Z,52.47
2019-03-24T21:52:55.496Z,57.63
2019-03-24T21:55:27.056Z,59.77
2019-03-24T21:57:58.737Z,49.83
2019-03-24T22:00:35.683Z,51.90
2019-03-24T22:03:08.452Z,59.37
2019-03-24T22:05:40.190Z,57.70
2019-03-24T22:08:11.795Z,65.07
2019-03-24T22:10:43.475Z,61.40
2019-03-24T22:13:15.084Z,60.40
2019-03-24T22:15:46.812Z,66.83
2019-03-24T22:18:18.444Z,69.50
2019-03-24T22:20:50.090Z,73.90
2019-03-24T22:23:21.760Z,71.63
2019-03-24T22:25:53.302Z,70.73
2019-03-24T22:28:24.874Z,66.17
2019-03-24T22:30:56.582Z,68.93
2019-03-24T22:33:28.234Z,75.77
2019-03-24T22:35:59.796Z,67.80
2019-03-24T22:38:31.372Z,65.80
2019-03-24T22:41:02.925Z,67.13
2019-03-24T22:43:35.550Z,63.70
2019-03-24T22:46:07.097Z,65.63
2019-03-24T22:48:38.751Z,65.37
2019-03-24T22:51:10.600Z,56.00
2019-03-24T22:53:42.179Z,62.30
2019-03-24T22:56:13.790Z,60.90
2019-03-24T22:58:45.463Z,68.13
2019-03-24T23:01:18.399Z,59.70
2019-03-24T23:03:50.030Z,60.90
2019-03-24T23:06:21.611Z,59.77
2019-03-24T23:08:53.234Z,62.27
2019-03-24T23:11:24.923Z,55.33
2019-03-24T23:13:56.483Z,65.63
2019-03-24T23:16:28.052Z,64.30
2019-03-24T23:18:59.683Z,55.73
2019-03-24T23:21:31.683Z,62.80
2019-03-24T23:24:14.580Z,55.57
2019-03-24T23:26:36.759Z,61.30
2019-03-24T23:29:08.383Z,55.10
2019-03-24T23:31:40.054Z,56.23
2019-03-24T23:34:12.873Z,64.47
2019-03-24T23:36:44.635Z,53.30
2019-03-24T23:39:16.348Z,58.57
2019-03-24T23:41:47.975Z,54.00
2019-03-24T23:44:19.652Z,41.33
2019-03-24T23:46:51.303Z,44.60
2019-03-24T23:49:22.930Z,51.23
2019-03-24T23:51:54.492Z,45.43
2019-03-24T23:54:27.341Z,44.27
2019-03-24T23:57:00.587Z,40.90
2019-03-24T23:59:32.456Z,43.17
